Time;durP1;ratioP1;P1;durP2;ratioP2;P2;SDS_P1;SDS_P2;PMS_P1;PMS_P2;Temp;Humidity;BMP_temperature;BMP_pressure;BME280_temperature;BME280_humidity;BME280_pressure;Samples;Min_cycle;Max_cycle;Signal;HPM_P1;HPM_P2
2022/10/22 00:00:46;;;;;;;43.95;28.50;;;26.80;99.90;;;;;;5033666;28;20025;-60
2022/10/22 00:03:12;;;;;;;40.63;26.02;;;26.80;99.90;;;;;;5033940;28;20017;-61
2022/10/22 00:05:39;;;;;;;35.80;23.02;;;26.70;99.90;;;;;;5033756;28;20025;-61
2022/10/22 00:08:06;;;;;;;31.25;20.60;;;26.70;99.90;;;;;;5033560;28;20113;-61
2022/10/22 00:10:32;;;;;;;48.65;26.77;;;26.70;99.90;;;;;;5033841;28;20048;-61
2022/10/22 00:12:59;;;;;;;45.33;27.90;;;26.80;99.90;;;;;;5034045;28;20061;-61
2022/10/22 00:15:26;;;;;;;50.33;30.35;;;26.80;99.90;;;;;;5033450;28;20386;-63
2022/10/22 00:17:52;;;;;;;47.95;31.38;;;26.80;99.90;;;;;;5033473;28;20109;-61
2022/10/22 00:20:19;;;;;;;32.42;24.65;;;26.80;99.90;;;;;;5033894;28;20025;-62
2022/10/22 00:22:46;;;;;;;44.78;28.67;;;26.80;99.90;;;;;;5033388;28;20013;-61
2022/10/22 00:25:12;;;;;;;113.70;81.93;;;26.80;99.90;;;;;;5033295;28;20156;-62
2022/10/22 00:27:39;;;;;;;45.47;32.80;;;27.00;99.90;;;;;;5033491;28;20028;-62
2022/10/22 00:30:06;;;;;;;26.52;21.75;;;27.00;99.90;;;;;;5013131;28;20041;-60
2022/10/22 00:32:33;;;;;;;29.38;21.30;;;27.10;99.90;;;;;;5013378;28;20014;-61
2022/10/22 00:34:59;;;;;;;36.13;26.00;;;27.20;99.90;;;;;;5013635;28;20025;-62
2022/10/22 00:37:26;;;;;;;35.78;26.45;;;27.20;99.90;;;;;;5013448;28;20387;-61
2022/10/22 00:39:53;;;;;;;43.22;29.60;;;27.30;99.90;;;;;;5013365;28;20025;-61
2022/10/22 00:42:22;;;;;;;43.45;28.25;;;27.30;99.90;;;;;;5013492;28;20022;-61
2022/10/22 00:44:54;;;;;;;37.90;26.95;;;27.40;99.90;;;;;;5013482;28;20033;-62
2022/10/22 00:47:24;;;;;;;37.05;28.75;;;27.40;99.90;;;;;;5013285;28;20368;-61
2022/10/22 00:49:52;;;;;;;38.30;30.65;;;27.40;99.90;;;;;;5013497;28;20026;-61
2022/10/22 00:52:21;;;;;;;38.17;30.65;;;27.40;99.90;;;;;;5013157;28;20054;-60
2022/10/22 00:54:47;;;;;;;37.35;28.75;;;27.40;99.90;;;;;;5013421;28;20431;-61
2022/10/22 00:57:16;;;;;;;40.85;28.80;;;27.30;99.90;;;;;;5013200;28;20022;-61
2022/10/22 00:59:42;;;;;;;38.33;28.90;;;27.30;99.90;;;;;;5013132;28;20049;-60
2022/10/22 01:02:09;;;;;;;96.93;72.30;;;27.40;99.90;;;;;;5013235;28;20493;-61
2022/10/22 01:04:35;;;;;;;43.28;31.10;;;27.50;99.90;;;;;;5013493;28;20075;-61
2022/10/22 01:07:03;;;;;;;46.42;34.85;;;27.50;99.90;;;;;;5013017;28;20022;-61
2022/10/22 01:09:41;;;;;;;35.15;28.10;;;27.60;99.90;;;;;;5013106;28;20026;-61
2022/10/22 01:12:10;;;;;;;45.15;29.45;;;27.60;99.90;;;;;;5012942;28;20030;-60
2022/10/22 01:14:39;;;;;;;37.00;29.27;;;27.60;99.90;;;;;;5012795;28;20025;-61
2022/10/22 01:17:09;;;;;;;46.38;31.33;;;27.70;99.90;;;;;;5012709;28;20037;-60
2022/10/22 01:19:55;;;;;;;37.60;28.63;;;27.80;99.90;;;;;;5013073;28;20026;-61
2022/10/22 01:22:31;;;;;;;38.70;29.98;;;27.90;99.90;;;;;;5004800;28;20046;-61
2022/10/22 01:25:11;;;;;;;45.35;32.58;;;27.80;99.90;;;;;;4993240;28;20101;-61
2022/10/22 01:27:47;;;;;;;39.05;32.95;;;27.80;99.90;;;;;;4993463;28;20026;-60
2022/10/22 01:30:15;;;;;;;42.67;34.20;;;27.80;99.90;;;;;;4993093;28;20018;-61
2022/10/22 01:32:48;;;;;;;42.55;34.30;;;27.90;99.90;;;;;;4993665;28;20026;-61
2022/10/22 01:35:23;;;;;;;50.75;41.25;;;27.90;99.90;;;;;;4997128;28;20550;-61
2022/10/22 01:37:56;;;;;;;56.40;44.65;;;27.90;99.90;;;;;;4996831;28;20085;-61
2022/10/22 01:40:24;;;;;;;46.17;34.45;;;28.00;99.90;;;;;;4997015;28;20023;-61
2022/10/22 01:42:56;;;;;;;39.05;33.38;;;28.00;99.90;;;;;;4996939;28;20452;-61
2022/10/22 01:45:23;;;;;;;47.97;37.25;;;28.00;99.90;;;;;;4996897;28;20080;-61
2022/10/22 01:47:53;;;;;;;49.33;37.22;;;28.10;99.90;;;;;;4997204;28;20026;-61
2022/10/22 01:50:23;;;;;;;47.05;37.75;;;28.10;99.90;;;;;;4996690;28;20032;-62
2022/10/22 01:52:52;;;;;;;48.40;34.72;;;28.10;99.90;;;;;;4996581;28;20047;-61
2022/10/22 01:55:25;;;;;;;39.50;29.70;;;28.30;99.90;;;;;;4996486;28;20040;-61
2022/10/22 01:58:03;;;;;;;38.80;30.27;;;28.30;99.90;;;;;;4996538;28;20116;-60
2022/10/22 02:00:30;;;;;;;50.40;34.97;;;28.40;99.90;;;;;;4996772;28;20022;-62
2022/10/22 02:03:01;;;;;;;45.40;33.80;;;28.40;99.90;;;;;;4996420;28;20029;-62
2022/10/22 02:05:37;;;;;;;43.92;38.25;;;28.60;99.90;;;;;;4996555;28;20033;-59
2022/10/22 02:08:10;;;;;;;49.60;39.15;;;28.50;99.90;;;;;;4996400;28;20054;-61
2022/10/22 02:10:39;;;;;;;41.47;36.45;;;28.60;99.90;;;;;;4996400;28;20019;-58
2022/10/22 02:13:21;;;;;;;46.40;38.17;;;28.80;99.90;;;;;;4996164;28;20105;-59
2022/10/22 02:15:49;;;;;;;51.83;42.60;;;28.90;99.90;;;;;;5007473;28;20030;-62
2022/10/22 02:18:19;;;;;;;55.67;43.78;;;28.90;99.90;;;;;;4997943;28;20022;-63
2022/10/22 02:20:46;;;;;;;58.05;41.92;;;29.00;99.90;;;;;;5002012;28;20018;-61
2022/10/22 02:23:13;;;;;;;63.25;49.10;;;29.10;99.90;;;;;;5015682;28;20021;-60
2022/10/22 02:25:44;;;;;;;79.63;59.03;;;29.10;99.90;;;;;;5015565;28;20084;-62
2022/10/22 02:28:13;;;;;;;53.80;44.08;;;29.20;99.90;;;;;;5015448;28;20478;-61
2022/10/22 02:30:45;;;;;;;59.75;45.55;;;29.10;99.90;;;;;;5015543;28;20088;-60
2022/10/22 02:33:19;;;;;;;51.75;41.65;;;29.10;99.90;;;;;;5015505;28;20026;-61
2022/10/22 02:35:47;;;;;;;56.03;44.13;;;29.20;99.90;;;;;;5008862;28;20500;-59
2022/10/22 02:38:15;;;;;;;54.63;42.13;;;29.20;99.90;;;;;;4995827;28;20018;-62
2022/10/22 02:40:42;;;;;;;65.10;42.35;;;29.20;99.90;;;;;;4995800;28;20356;-62
2022/10/22 02:43:08;;;;;;;70.85;49.83;;;29.30;99.90;;;;;;4995845;28;20026;-62
2022/10/22 02:45:36;;;;;;;48.92;39.65;;;29.20;99.90;;;;;;4994564;28;20501;-61
2022/10/22 02:48:04;;;;;;;53.40;41.30;;;29.20;99.90;;;;;;4995727;28;20038;-62
2022/10/22 02:50:31;;;;;;;49.55;41.83;;;29.20;99.90;;;;;;4995538;28;20583;-59
2022/10/22 02:52:57;;;;;;;57.97;44.28;;;29.20;99.90;;;;;;4995690;28;20050;-60
2022/10/22 02:55:24;;;;;;;54.10;41.60;;;29.30;99.90;;;;;;4995537;28;20026;-63
2022/10/22 02:57:51;;;;;;;53.35;41.42;;;29.30;99.90;;;;;;4999358;28;20114;-62
2022/10/22 03:00:17;;;;;;;49.72;41.13;;;29.40;99.90;;;;;;5002677;28;20132;-63
2022/10/22 03:02:44;;;;;;;56.22;45.30;;;29.40;99.90;;;;;;4995886;28;20018;-61
2022/10/22 03:05:11;;;;;;;52.13;44.10;;;29.60;99.90;;;;;;4995254;28;20018;-62
2022/10/22 03:07:37;;;;;;;61.80;46.97;;;29.60;99.90;;;;;;4995421;28;20022;-63
2022/10/22 03:10:04;;;;;;;63.22;48.95;;;29.60;99.90;;;;;;4995547;28;20446;-64
2022/10/22 03:12:31;;;;;;;68.20;51.88;;;29.70;99.90;;;;;;4995271;28;20053;-63
2022/10/22 03:14:57;;;;;;;81.07;58.50;;;29.80;99.90;;;;;;4995518;28;20022;-64
2022/10/22 03:17:24;;;;;;;74.13;55.38;;;29.70;99.90;;;;;;4995198;28;20084;-61
2022/10/22 03:19:51;;;;;;;70.90;53.78;;;29.60;99.90;;;;;;4995090;28;20014;-60
2022/10/22 03:22:22;;;;;;;75.20;54.53;;;29.60;99.90;;;;;;4995165;28;20022;-61
2022/10/22 03:24:53;;;;;;;62.80;48.10;;;29.70;99.90;;;;;;5011970;28;20452;-63
2022/10/22 03:27:22;;;;;;;43.72;36.15;;;29.70;99.90;;;;;;5014633;28;20390;-62
2022/10/22 03:29:50;;;;;;;44.70;35.42;;;29.80;99.90;;;;;;5014741;28;20030;-60
2022/10/22 03:32:17;;;;;;;55.25;40.72;;;29.90;99.90;;;;;;5014529;28;20033;-63
2022/10/22 03:34:44;;;;;;;115.93;100.45;;;29.80;99.90;;;;;;5014609;28;20108;-60
2022/10/22 03:37:11;;;;;;;42.58;30.58;;;29.90;99.90;;;;;;5014483;28;20100;-57
2022/10/22 03:39:38;;;;;;;222.85;149.30;;;29.90;99.90;;;;;;5008678;28;20360;-64
2022/10/22 03:42:06;;;;;;;69.38;49.45;;;29.90;99.90;;;;;;5006096;28;20050;-60
2022/10/22 03:44:34;;;;;;;54.85;38.97;;;30.00;99.90;;;;;;5014627;28;20018;-61
2022/10/22 03:47:00;;;;;;;43.10;31.92;;;30.00;99.90;;;;;;5013759;28;20076;-62
2022/10/22 03:49:27;;;;;;;48.03;33.28;;;30.00;99.90;;;;;;5008012;28;20030;-64
2022/10/22 03:51:53;;;;;;;44.25;33.88;;;30.20;99.90;;;;;;4997995;28;20050;-61
2022/10/22 03:54:20;;;;;;;36.85;27.45;;;30.20;99.90;;;;;;4994461;28;20089;-62
2022/10/22 03:56:46;;;;;;;38.78;29.50;;;30.30;99.90;;;;;;4994004;28;20022;-61
2022/10/22 03:59:13;;;;;;;40.58;28.48;;;30.40;99.90;;;;;;4994518;28;20053;-63
2022/10/22 04:01:40;;;;;;;87.35;66.75;;;30.50;99.90;;;;;;4994822;28;20507;-61
2022/10/22 04:04:07;;;;;;;29.98;23.85;;;30.50;99.90;;;;;;4994426;28;20053;-64
2022/10/22 04:06:34;;;;;;;37.17;28.10;;;30.50;99.90;;;;;;4994313;28;20093;-61
2022/10/22 04:09:01;;;;;;;28.08;19.45;;;30.50;99.90;;;;;;4994315;28;20092;-63
2022/10/22 04:11:27;;;;;;;30.27;20.08;;;30.40;99.90;;;;;;4994076;28;20063;-65
2022/10/22 04:13:54;;;;;;;27.98;15.45;;;30.40;99.90;;;;;;4994309;28;20022;-63
2022/10/22 04:16:22;;;;;;;26.00;11.90;;;30.10;99.90;;;;;;5004724;28;20033;-60
2022/10/22 04:18:49;;;;;;;26.52;10.43;;;29.80;99.90;;;;;;4994140;28;20054;-61
2022/10/22 04:21:18;;;;;;;22.77;10.80;;;29.50;99.90;;;;;;4994209;28;20046;-59
2022/10/22 04:23:48;;;;;;;17.60;9.48;;;29.40;99.90;;;;;;4994133;28;20029;-62
2022/10/22 04:26:15;;;;;;;23.02;9.35;;;29.40;99.90;;;;;;4993776;28;20050;-60
2022/10/22 04:28:42;;;;;;;17.02;8.82;;;29.60;99.90;;;;;;4993914;28;20022;-61
2022/10/22 04:31:11;;;;;;;13.52;6.80;;;29.80;99.90;;;;;;4993894;28;20034;-60
2022/10/22 04:33:38;;;;;;;11.40;6.03;;;29.80;99.90;;;;;;4994391;28;20455;-62
2022/10/22 04:36:08;;;;;;;10.73;5.50;;;29.70;99.90;;;;;;5004527;28;20032;-60
2022/10/22 04:38:34;;;;;;;10.38;5.18;;;29.70;99.90;;;;;;5032844;28;20075;-63
2022/10/22 04:41:06;;;;;;;12.30;4.88;;;29.70;99.90;;;;;;5033465;28;20033;-60
2022/10/22 04:43:32;;;;;;;12.77;5.47;;;29.70;99.90;;;;;;5033245;28;20018;-60
2022/10/22 04:46:00;;;;;;;16.15;5.50;;;29.70;99.90;;;;;;5018303;28;20487;-61
2022/10/22 04:48:26;;;;;;;10.93;4.28;;;29.70;99.90;;;;;;5004950;28;20416;-60
2022/10/22 04:50:53;;;;;;;14.85;6.10;;;29.70;99.90;;;;;;5013197;28;20068;-60
2022/10/22 04:53:19;;;;;;;11.40;5.60;;;29.80;99.90;;;;;;5006266;28;20053;-61
2022/10/22 04:55:46;;;;;;;9.90;4.50;;;29.80;99.90;;;;;;5009397;28;20030;-62
2022/10/22 04:58:12;;;;;;;10.50;3.67;;;29.60;99.90;;;;;;5000611;28;20022;-61
2022/10/22 05:00:39;;;;;;;11.45;4.07;;;29.60;99.90;;;;;;5015331;28;20026;-57
2022/10/22 05:03:06;;;;;;;13.55;3.35;;;29.80;99.90;;;;;;5024046;28;20014;-56
2022/10/22 05:05:32;;;;;;;14.73;3.47;;;29.80;99.90;;;;;;5024004;28;20022;-57
2022/10/22 05:07:59;;;;;;;10.35;4.10;;;29.70;99.90;;;;;;5019991;28;20021;-64
2022/10/22 05:10:25;;;;;;;5.85;3.45;;;29.80;99.90;;;;;;5028316;28;20016;-60
2022/10/22 05:12:52;;;;;;;7.05;3.17;;;29.80;99.90;;;;;;5028283;28;20014;-58
2022/10/22 05:15:18;;;;;;;8.68;3.83;;;29.90;99.90;;;;;;5029213;28;20393;-62
2022/10/22 05:17:45;;;;;;;7.68;3.58;;;29.80;99.90;;;;;;5028031;28;20034;-64
2022/10/22 05:20:11;;;;;;;10.43;3.70;;;29.50;99.90;;;;;;5027922;28;20017;-59
2022/10/22 05:22:38;;;;;;;6.70;3.88;;;29.60;99.90;;;;;;5028582;28;20017;-59
2022/10/22 05:25:05;;;;;;;9.50;3.78;;;29.70;99.90;;;;;;5027947;28;20021;-61
2022/10/22 05:27:34;;;;;;;9.20;3.97;;;29.70;99.90;;;;;;5025962;28;20032;-60
2022/10/22 05:30:01;;;;;;;5.45;3.70;;;29.70;99.90;;;;;;5032029;28;20025;-60
2022/10/22 05:32:27;;;;;;;7.13;3.60;;;29.60;99.90;;;;;;5036581;28;20026;-62
2022/10/22 05:34:54;;;;;;;11.10;3.92;;;29.40;99.90;;;;;;5036688;28;20125;-57
2022/10/22 05:37:20;;;;;;;5.72;2.85;;;29.40;99.90;;;;;;5036464;28;20025;-59
2022/10/22 05:39:47;;;;;;;6.82;3.30;;;29.40;99.90;;;;;;5036486;28;20025;-57
2022/10/22 05:42:13;;;;;;;8.23;3.72;;;29.40;99.90;;;;;;5036514;28;20080;-64
2022/10/22 05:44:40;;;;;;;13.50;4.38;;;29.70;99.90;;;;;;5036494;28;20474;-61
2022/10/22 05:47:06;;;;;;;14.60;3.65;;;29.90;99.90;;;;;;5027156;28;20120;-56
2022/10/22 05:49:33;;;;;;;9.18;3.85;;;29.90;99.90;;;;;;5024443;28;20022;-58
2022/10/22 05:51:59;;;;;;;8.02;4.80;;;30.00;99.90;;;;;;5019874;28;20042;-59
2022/10/22 05:54:26;;;;;;;11.38;4.30;;;29.80;99.90;;;;;;5022184;28;20544;-62
2022/10/22 05:56:54;;;;;;;10.20;5.38;;;30.00;99.90;;;;;;5026698;28;20109;-63
2022/10/22 05:59:20;;;;;;;10.95;5.07;;;30.10;99.90;;;;;;5022444;28;20014;-60
2022/10/22 06:01:47;;;;;;;14.68;9.80;;;30.00;99.90;;;;;;5027411;28;20017;-57
2022/10/22 06:04:15;;;;;;;9.82;5.78;;;30.20;99.90;;;;;;5022166;28;20018;-59
2022/10/22 06:06:45;;;;;;;7.28;3.95;;;30.40;99.90;;;;;;5022179;28;20029;-62
2022/10/22 06:09:18;;;;;;;6.88;4.47;;;30.50;99.90;;;;;;5024960;28;20025;-58
2022/10/22 06:11:45;;;;;;;6.57;3.45;;;30.50;99.90;;;;;;5028875;28;20032;-58
2022/10/22 06:14:13;;;;;;;7.95;3.83;;;30.40;99.90;;;;;;5036106;28;20355;-60
2022/10/22 06:16:39;;;;;;;7.72;3.95;;;30.40;99.90;;;;;;5035864;28;20032;-62
2022/10/22 06:19:07;;;;;;;11.23;5.45;;;30.50;99.90;;;;;;5035236;28;20034;-62
2022/10/22 06:21:33;;;;;;;11.57;4.57;;;30.40;99.90;;;;;;5035757;28;20021;-59
2022/10/22 06:24:01;;;;;;;12.48;4.25;;;30.50;99.90;;;;;;5029611;28;20429;-61
2022/10/22 06:26:28;;;;;;;11.13;3.70;;;30.60;99.90;;;;;;5024920;28;20026;-60
2022/10/22 06:28:55;;;;;;;14.38;4.03;;;30.60;99.90;;;;;;5021263;28;20036;-59
2022/10/22 06:31:23;;;;;;;6.72;3.97;;;30.70;99.90;;;;;;5024227;28;20045;-62
2022/10/22 06:33:50;;;;;;;6.75;3.97;;;30.60;99.90;;;;;;5025289;28;20053;-56
2022/10/22 06:36:21;;;;;;;12.60;4.00;;;30.50;99.90;;;;;;5029737;28;20368;-61
2022/10/22 06:38:52;;;;;;;6.70;3.70;;;30.50;99.90;;;;;;5029363;28;20026;-62
2022/10/22 06:41:18;;;;;;;6.75;4.63;;;30.50;99.90;;;;;;4996195;28;20034;-62
2022/10/22 06:43:47;;;;;;;10.23;4.78;;;30.50;99.90;;;;;;4997862;28;20383;-64
2022/10/22 06:46:19;;;;;;;8.13;3.42;;;30.40;99.90;;;;;;4996825;28;20022;-59
2022/10/22 06:48:51;;;;;;;6.03;3.45;;;30.40;99.90;;;;;;4996627;28;20093;-59
2022/10/22 06:51:17;;;;;;;5.45;2.85;;;30.30;99.90;;;;;;4995902;28;20565;-60
2022/10/22 06:53:44;;;;;;;6.18;2.78;;;30.20;99.90;;;;;;4996220;28;20038;-62
2022/10/22 06:56:13;;;;;;;7.28;3.38;;;30.20;99.90;;;;;;4995898;28;20113;-62
2022/10/22 06:58:40;;;;;;;7.32;3.47;;;30.10;99.90;;;;;;4995874;28;20165;-62
2022/10/22 07:01:10;;;;;;;10.70;5.22;;;30.00;99.90;;;;;;4996102;28;20023;-58
2022/10/22 07:03:37;;;;;;;7.57;5.00;;;30.00;99.90;;;;;;4995796;28;20022;-60
2022/10/22 07:06:07;;;;;;;12.68;4.18;;;30.00;99.90;;;;;;4996084;28;20426;-61
2022/10/22 07:08:33;;;;;;;17.38;4.93;;;30.00;99.90;;;;;;5008222;28;20037;-62
2022/10/22 07:11:08;;;;;;;6.93;3.72;;;30.00;99.90;;;;;;5004394;28;20030;-61
2022/10/22 07:13:35;;;;;;;9.32;4.50;;;30.00;99.90;;;;;;4994984;28;20522;-57
2022/10/22 07:16:03;;;;;;;7.32;3.75;;;29.90;99.90;;;;;;4995186;28;20064;-60
2022/10/22 07:18:30;;;;;;;7.78;3.40;;;29.80;99.90;;;;;;4995214;28;20015;-59
2022/10/22 07:20:57;;;;;;;8.70;2.80;;;29.90;99.90;;;;;;4995041;28;20121;-61
2022/10/22 07:23:23;;;;;;;10.73;3.70;;;29.80;99.90;;;;;;4995097;28;20476;-62
2022/10/22 07:25:50;;;;;;;6.85;2.97;;;29.80;99.90;;;;;;4995159;28;20022;-62
2022/10/22 07:28:17;;;;;;;5.30;3.20;;;29.80;99.90;;;;;;4994801;28;20026;-62
2022/10/22 07:30:43;;;;;;;6.65;3.30;;;29.80;99.90;;;;;;4994112;28;20100;-62
2022/10/22 07:33:10;;;;;;;11.00;5.10;;;29.80;99.90;;;;;;4995001;28;20023;-62
2022/10/22 07:35:38;;;;;;;7.05;3.75;;;29.80;99.90;;;;;;4995115;28;20023;-62
2022/10/22 07:38:06;;;;;;;16.15;6.40;;;29.80;99.90;;;;;;5004862;28;20056;-62
2022/10/22 07:40:32;;;;;;;11.15;6.28;;;29.80;99.90;;;;;;4996475;28;20416;-62
2022/10/22 07:42:59;;;;;;;17.50;4.47;;;29.80;99.90;;;;;;5008567;28;20061;-62
2022/10/22 07:45:26;;;;;;;8.30;4.85;;;29.80;99.90;;;;;;5022018;28;20022;-62
2022/10/22 07:47:52;;;;;;;12.93;5.30;;;29.90;99.90;;;;;;5021446;28;20029;-62
2022/10/22 07:50:19;;;;;;;8.35;5.75;;;29.90;99.90;;;;;;5022722;28;20104;-61
2022/10/22 07:52:46;;;;;;;17.40;6.93;;;29.90;99.90;;;;;;5020688;28;20497;-60
2022/10/22 07:55:12;;;;;;;15.82;7.57;;;29.80;99.90;;;;;;5022028;28;20013;-62
2022/10/22 07:57:39;;;;;;;17.75;8.68;;;29.90;99.90;;;;;;5022583;28;20347;-61
2022/10/22 08:00:08;;;;;;;13.45;8.02;;;29.90;99.90;;;;;;5019691;28;20441;-62
2022/10/22 08:02:35;;;;;;;15.63;8.48;;;29.90;99.90;;;;;;5023203;28;20478;-63
2022/10/22 08:05:01;;;;;;;14.15;8.02;;;29.90;99.90;;;;;;5023326;28;20022;-63
2022/10/22 08:07:28;;;;;;;17.73;11.38;;;29.90;99.90;;;;;;5018977;28;20105;-65
2022/10/22 08:09:54;;;;;;;35.10;26.58;;;29.80;99.90;;;;;;5025448;28;20382;-64
2022/10/22 08:12:21;;;;;;;26.63;17.42;;;29.90;99.90;;;;;;5030280;28;20030;-63
2022/10/22 08:14:47;;;;;;;127.85;84.45;;;29.90;99.90;;;;;;5033759;28;20022;-64
2022/10/22 08:17:14;;;;;;;17.17;9.15;;;29.90;99.90;;;;;;5033365;28;20083;-62
2022/10/22 08:19:40;;;;;;;17.30;11.63;;;29.80;99.90;;;;;;5033525;28;20018;-63
2022/10/22 08:22:07;;;;;;;47.38;11.48;;;29.80;99.90;;;;;;5033577;28;20021;-62
2022/10/22 08:24:33;;;;;;;12.20;8.40;;;29.80;99.90;;;;;;5033616;28;20093;-59
2022/10/22 08:27:00;;;;;;;13.52;8.45;;;29.70;99.90;;;;;;5033237;28;20394;-60
2022/10/22 08:29:26;;;;;;;21.98;12.82;;;29.60;99.90;;;;;;5024240;28;20022;-61
2022/10/22 08:31:53;;;;;;;21.85;10.90;;;29.60;99.90;;;;;;5003200;28;20028;-61
2022/10/22 08:34:20;;;;;;;25.75;11.48;;;29.70;99.90;;;;;;5013505;28;20070;-62
2022/10/22 08:36:47;;;;;;;9.45;7.07;;;29.60;99.90;;;;;;5006796;28;20477;-61
2022/10/22 08:39:13;;;;;;;14.27;9.70;;;29.60;99.90;;;;;;5001704;28;20015;-62
2022/10/22 08:41:44;;;;;;;15.93;11.38;;;29.60;99.90;;;;;;4993826;28;20546;-61
2022/10/22 08:44:22;;;;;;;31.97;24.27;;;29.60;99.90;;;;;;4993909;28;20069;-61
2022/10/22 08:46:51;;;;;;;30.27;20.25;;;29.60;99.90;;;;;;4994022;28;20038;-62
2022/10/22 08:49:25;;;;;;;22.52;13.05;;;29.60;99.90;;;;;;4994151;28;20099;-62
2022/10/22 08:51:52;;;;;;;23.13;15.07;;;29.60;99.90;;;;;;5005477;28;20516;-63
2022/10/22 08:54:26;;;;;;;29.45;18.98;;;29.50;99.90;;;;;;5021087;28;20026;-62
2022/10/22 08:57:15;;;;;;;22.10;11.77;;;29.50;99.90;;;;;;5021448;28;20109;-61
2022/10/22 08:59:48;;;;;;;18.35;10.50;;;29.50;99.90;;;;;;4981236;28;20509;-62
2022/10/22 09:02:20;;;;;;;25.38;13.27;;;29.40;99.90;;;;;;5020995;28;20182;-60
2022/10/22 09:05:02;;;;;;;22.17;13.98;;;29.40;99.90;;;;;;5022218;28;20044;-63
2022/10/22 09:07:29;;;;;;;23.45;10.73;;;29.30;99.90;;;;;;5020936;28;20053;-63
2022/10/22 09:10:00;;;;;;;16.40;9.88;;;29.40;99.90;;;;;;5020869;28;20022;-62
2022/10/22 09:12:27;;;;;;;16.02;10.32;;;29.30;99.90;;;;;;5021827;28;20022;-61
2022/10/22 09:14:54;;;;;;;13.25;7.88;;;29.30;99.90;;;;;;5017938;28;20033;-64
2022/10/22 09:17:32;;;;;;;15.48;8.68;;;29.30;99.90;;;;;;5013143;28;20029;-64
2022/10/22 09:20:03;;;;;;;26.80;14.73;;;29.20;99.90;;;;;;5003474;28;20022;-64
2022/10/22 09:22:39;;;;;;;26.35;15.35;;;29.00;99.90;;;;;;4995655;28;20030;-64
2022/10/22 09:25:13;;;;;;;31.17;18.77;;;28.90;99.90;;;;;;4992929;28;20025;-63
2022/10/22 09:27:40;;;;;;;23.25;12.15;;;28.90;99.90;;;;;;4994203;28;20037;-61
2022/10/22 09:30:11;;;;;;;17.13;9.75;;;28.90;99.90;;;;;;5012781;28;20037;-63
2022/10/22 09:32:37;;;;;;;19.05;8.93;;;28.90;99.90;;;;;;5012910;28;20483;-63
2022/10/22 09:35:08;;;;;;;26.25;12.25;;;28.80;99.90;;;;;;5012998;28;20471;-63
2022/10/22 09:37:35;;;;;;;25.43;13.67;;;28.80;99.90;;;;;;5012719;28;20566;-62
2022/10/22 09:40:05;;;;;;;22.50;11.73;;;28.80;99.90;;;;;;5008845;28;20038;-63
2022/10/22 09:42:33;;;;;;;31.70;12.68;;;28.80;99.90;;;;;;5001469;28;20025;-63
2022/10/22 09:45:00;;;;;;;15.90;9.95;;;28.70;99.90;;;;;;5022885;28;20032;-64
2022/10/22 09:47:31;;;;;;;15.38;9.30;;;28.60;99.90;;;;;;4994000;28;20030;-64
2022/10/22 09:50:02;;;;;;;22.63;12.95;;;28.60;99.90;;;;;;4994661;28;21237;-64
2022/10/22 09:52:33;;;;;;;33.10;14.93;;;28.60;99.90;;;;;;5007408;28;20051;-64
2022/10/22 09:55:02;;;;;;;29.30;12.93;;;28.60;99.90;;;;;;5004805;28;20398;-64
2022/10/22 09:57:29;;;;;;;18.38;9.70;;;28.60;99.90;;;;;;5007003;28;20049;-63
2022/10/22 09:59:56;;;;;;;16.65;7.90;;;28.60;99.90;;;;;;5036355;28;20363;-63
2022/10/22 10:02:26;;;;;;;15.85;8.25;;;28.60;99.90;;;;;;5023799;28;20383;-63
2022/10/22 10:04:56;;;;;;;34.40;18.58;;;28.60;99.90;;;;;;5019768;28;20026;-62
2022/10/22 10:07:24;;;;;;;51.08;25.95;;;28.50;99.90;;;;;;5001863;28;20034;-62
2022/10/22 10:09:52;;;;;;;35.42;18.45;;;28.50;99.90;;;;;;5013574;28;20037;-64
2022/10/22 10:12:24;;;;;;;29.40;19.08;;;28.50;99.90;;;;;;5017654;28;20030;-62
2022/10/22 10:15:00;;;;;;;33.75;21.10;;;28.40;99.90;;;;;;5014290;28;20033;-58
2022/10/22 10:17:47;;;;;;;36.58;21.38;;;28.40;99.90;;;;;;4998415;28;20126;-62
2022/10/22 10:20:37;;;;;;;27.88;14.20;;;28.30;99.90;;;;;;4998942;28;20130;-66
2022/10/22 10:23:26;;;;;;;27.75;12.55;;;28.20;99.90;;;;;;5018692;28;20050;-58
2022/10/22 10:25:56;;;;;;;16.67;10.27;;;28.20;99.90;;;;;;5004025;28;20038;-61
2022/10/22 10:28:26;;;;;;;43.08;29.85;;;28.20;99.90;;;;;;5010491;28;20544;-60
2022/10/22 10:31:13;;;;;;;23.85;13.25;;;28.10;99.90;;;;;;4997551;28;20022;-61
2022/10/22 10:33:40;;;;;;;45.10;24.88;;;28.20;99.90;;;;;;5011564;23;20053;-65
2022/10/22 10:36:14;;;;;;;31.27;15.88;;;28.20;99.90;;;;;;4997746;28;20237;-67
2022/10/22 10:38:55;;;;;;;32.85;15.40;;;28.00;99.90;;;;;;5034523;23;20070;-68
2022/10/22 10:41:22;;;;;;;31.75;14.05;;;28.00;99.90;;;;;;5011648;28;20474;-68
2022/10/22 10:44:11;;;;;;;38.60;21.10;;;28.00;99.90;;;;;;5009307;28;20375;-66
2022/10/22 10:47:06;;;;;;;41.72;21.80;;;28.10;99.90;;;;;;4990562;28;20030;-60
2022/10/22 10:49:35;;;;;;;33.67;17.65;;;28.10;99.90;;;;;;4989238;28;20035;-63
2022/10/22 10:52:14;;;;;;;36.63;21.05;;;28.10;99.90;;;;;;5007945;28;20027;-62
2022/10/22 10:54:50;;;;;;;53.22;25.48;;;28.10;99.90;;;;;;4997617;28;20014;-63
2022/10/22 10:57:29;;;;;;;54.28;28.75;;;28.20;99.90;;;;;;5015945;28;20030;-60
2022/10/22 11:00:16;;;;;;;73.15;39.72;;;28.20;99.90;;;;;;5007997;28;20033;-55
2022/10/22 11:02:47;;;;;;;67.78;39.30;;;28.20;99.90;;;;;;5014139;28;20026;-65
2022/10/22 11:05:19;;;;;;;71.50;38.63;;;28.10;99.90;;;;;;5009599;28;20085;-59
2022/10/22 11:07:54;;;;;;;56.05;32.65;;;28.10;99.90;;;;;;5016394;28;20034;-64
2022/10/22 11:10:22;;;;;;;57.08;28.60;;;28.10;99.90;;;;;;5010204;28;20065;-63
2022/10/22 11:12:54;;;;;;;35.80;21.85;;;28.00;99.90;;;;;;5007788;28;20026;-57
2022/10/22 11:15:30;;;;;;;37.47;20.58;;;27.90;99.90;;;;;;5011961;28;20041;-61
2022/10/22 11:18:06;;;;;;;41.60;22.63;;;27.80;99.90;;;;;;5016675;28;20037;-64
2022/10/22 11:20:53;;;;;;;41.40;22.30;;;27.70;99.90;;;;;;5016304;28;20018;-63
2022/10/22 11:23:36;;;;;;;50.40;22.67;;;27.80;99.90;;;;;;5009192;28;20399;-66
2022/10/22 11:26:10;;;;;;;52.05;26.73;;;27.90;99.90;;;;;;5003882;28;20026;-62
2022/10/22 11:28:43;;;;;;;59.42;29.48;;;27.80;99.90;;;;;;5004446;28;20034;-66
2022/10/22 11:31:16;;;;;;;75.32;28.35;;;27.80;99.90;;;;;;5005732;28;20030;-61
2022/10/22 11:33:43;;;;;;;47.58;24.02;;;27.90;99.90;;;;;;5003134;28;20033;-62
2022/10/22 11:36:11;;;;;;;55.08;23.50;;;27.90;99.90;;;;;;5005307;28;20454;-64
2022/10/22 11:38:37;;;;;;;60.85;30.00;;;27.90;99.90;;;;;;5004766;28;20042;-63
2022/10/22 11:41:10;;;;;;;47.55;28.67;;;28.00;99.90;;;;;;5004174;28;20065;-64
2022/10/22 11:43:42;;;;;;;43.03;23.83;;;27.90;99.90;;;;;;5006357;28;20018;-62
2022/10/22 11:46:28;;;;;;;47.30;22.92;;;27.90;99.90;;;;;;5002567;28;20380;-63
2022/10/22 11:49:00;;;;;;;65.43;30.98;;;27.80;99.90;;;;;;4998131;28;20092;-66
2022/10/22 11:51:35;;;;;;;57.90;27.15;;;27.90;99.90;;;;;;5003227;28;20022;-67
2022/10/22 11:54:24;;;;;;;40.17;22.50;;;27.90;99.90;;;;;;4997880;28;20575;-68
2022/10/22 11:56:57;;;;;;;37.67;20.08;;;27.90;99.90;;;;;;4994702;28;20026;-70
2022/10/22 11:59:29;;;;;;;37.08;22.92;;;27.90;99.90;;;;;;5003826;28;20027;-66
2022/10/22 12:01:55;;;;;;;36.38;21.38;;;27.80;99.90;;;;;;5013773;28;20026;-68
2022/10/22 12:04:40;;;;;;;35.90;19.00;;;27.70;99.90;;;;;;5013958;28;20033;-67
2022/10/22 12:07:29;;;;;;;39.15;17.35;;;27.70;99.90;;;;;;5010017;28;20437;-65
2022/10/22 12:09:57;;;;;;;43.72;22.17;;;27.60;99.90;;;;;;5010099;28;20026;-63
2022/10/22 12:12:24;;;;;;;48.08;20.83;;;27.70;99.90;;;;;;5003178;28;20023;-66
2022/10/22 12:14:57;;;;;;;31.70;17.48;;;27.70;99.90;;;;;;4994353;28;20022;-64
2022/10/22 12:17:24;;;;;;;45.58;17.65;;;27.70;99.90;;;;;;5001715;28;20391;-63
2022/10/22 12:19:53;;;;;;;33.97;17.80;;;27.70;99.90;;;;;;5003267;28;20675;-64
2022/10/22 12:22:25;;;;;;;36.10;18.45;;;27.70;99.90;;;;;;4994047;28;20033;-65
2022/10/22 12:24:53;;;;;;;31.77;16.67;;;27.70;99.90;;;;;;5008066;28;20037;-64
2022/10/22 12:27:21;;;;;;;40.80;17.38;;;27.60;99.90;;;;;;5009612;28;20030;-64
2022/10/22 12:29:48;;;;;;;30.80;16.30;;;27.60;99.90;;;;;;4993954;28;20109;-63
2022/10/22 12:32:16;;;;;;;37.15;16.40;;;27.50;99.90;;;;;;4993786;28;20026;-64
2022/10/22 12:34:51;;;;;;;37.40;16.45;;;27.50;99.90;;;;;;4994038;28;20026;-65
2022/10/22 12:37:19;;;;;;;29.25;15.20;;;27.60;99.90;;;;;;4993651;28;20045;-64
2022/10/22 12:39:46;;;;;;;22.13;12.93;;;27.60;99.90;;;;;;4993699;28;20027;-64
2022/10/22 12:42:14;;;;;;;28.02;13.45;;;27.50;99.90;;;;;;4993638;28;20026;-65